sensor_id;sensor_type;location;lat;lon;timestamp;P1;durP1;ratioP1;P2;durP2;ratioP2
28724;SDS011;43472;48.980;9.646;2023-05-15T00:00:28;7.82;;;5.10;;
28724;SDS011;43472;48.980;9.646;2023-05-15T00:05:29;10.02;;;5.32;;
28724;SDS011;43472;48.980;9.646;2023-05-15T00:10:31;8.93;;;4.75;;
28724;SDS011;43472;48.980;9.646;2023-05-15T00:15:33;9.55;;;4.32;;
28724;SDS011;43472;48.980;9.646;2023-05-15T00:20:35;11.38;;;4.80;;
28724;SDS011;43472;48.980;9.646;2023-05-15T00:25:36;6.85;;;3.60;;
28724;SDS011;43472;48.980;9.646;2023-05-15T00:30:39;7.03;;;3.85;;
28724;SDS011;43472;48.980;9.646;2023-05-15T00:35:40;5.45;;;4.28;;
28724;SDS011;43472;48.980;9.646;2023-05-15T00:40:42;8.70;;;4.85;;
28724;SDS011;43472;48.980;9.646;2023-05-15T00:45:45;7.10;;;4.75;;
28724;SDS011;43472;48.980;9.646;2023-05-15T00:50:49;11.25;;;4.72;;
28724;SDS011;43472;48.980;9.646;2023-05-15T00:55:55;7.65;;;4.88;;
28724;SDS011;43472;48.980;9.646;2023-05-15T01:00:58;7.03;;;4.68;;
28724;SDS011;43472;48.980;9.646;2023-05-15T01:06:00;8.10;;;4.38;;
28724;SDS011;43472;48.980;9.646;2023-05-15T01:11:03;8.05;;;4.70;;
28724;SDS011;43472;48.980;9.646;2023-05-15T01:16:08;7.30;;;4.80;;
28724;SDS011;43472;48.980;9.646;2023-05-15T01:32:18;6.82;;;3.92;;
28724;SDS011;43472;48.980;9.646;2023-05-15T01:37:25;8.13;;;4.82;;
28724;SDS011;43472;48.980;9.646;2023-05-15T01:42:32;5.57;;;4.13;;
28724;SDS011;43472;48.980;9.646;2023-05-15T01:47:45;6.03;;;3.60;;
28724;SDS011;43472;48.980;9.646;2023-05-15T01:52:53;6.57;;;3.80;;
28724;SDS011;43472;48.980;9.646;2023-05-15T01:57:59;8.30;;;5.00;;
28724;SDS011;43472;48.980;9.646;2023-05-15T02:03:02;8.43;;;4.00;;
28724;SDS011;43472;48.980;9.646;2023-05-15T02:08:06;7.43;;;4.75;;
28724;SDS011;43472;48.980;9.646;2023-05-15T02:13:09;7.72;;;4.85;;
28724;SDS011;43472;48.980;9.646;2023-05-15T02:18:12;13.02;;;5.70;;
28724;SDS011;43472;48.980;9.646;2023-05-15T02:23:14;13.45;;;4.97;;
28724;SDS011;43472;48.980;9.646;2023-05-15T02:28:20;9.65;;;4.75;;
28724;SDS011;43472;48.980;9.646;2023-05-15T02:33:33;6.68;;;4.75;;
28724;SDS011;43472;48.980;9.646;2023-05-15T02:38:43;6.50;;;4.50;;
28724;SDS011;43472;48.980;9.646;2023-05-15T02:43:50;7.38;;;5.03;;
28724;SDS011;43472;48.980;9.646;2023-05-15T02:48:52;6.93;;;4.93;;
28724;SDS011;43472;48.980;9.646;2023-05-15T02:53:55;7.10;;;4.63;;
28724;SDS011;43472;48.980;9.646;2023-05-15T02:59:01;14.43;;;4.85;;
28724;SDS011;43472;48.980;9.646;2023-05-15T03:04:03;6.65;;;4.93;;
28724;SDS011;43472;48.980;9.646;2023-05-15T03:09:05;12.32;;;4.97;;
28724;SDS011;43472;48.980;9.646;2023-05-15T03:14:07;12.55;;;5.05;;
28724;SDS011;43472;48.980;9.646;2023-05-15T03:19:09;6.80;;;4.22;;
28724;SDS011;43472;48.980;9.646;2023-05-15T03:24:11;9.38;;;4.65;;
28724;SDS011;43472;48.980;9.646;2023-05-15T03:29:13;10.70;;;4.70;;
28724;SDS011;43472;48.980;9.646;2023-05-15T03:34:14;10.63;;;4.88;;
28724;SDS011;43472;48.980;9.646;2023-05-15T03:39:16;6.47;;;3.90;;
28724;SDS011;43472;48.980;9.646;2023-05-15T03:44:18;6.47;;;4.40;;
28724;SDS011;43472;48.980;9.646;2023-05-15T03:49:20;6.28;;;4.40;;
28724;SDS011;43472;48.980;9.646;2023-05-15T03:54:22;8.43;;;4.72;;
28724;SDS011;43472;48.980;9.646;2023-05-15T03:59:23;8.48;;;3.95;;
28724;SDS011;43472;48.980;9.646;2023-05-15T04:04:25;7.22;;;4.15;;
28724;SDS011;43472;48.980;9.646;2023-05-15T04:09:27;8.75;;;4.07;;
28724;SDS011;43472;48.980;9.646;2023-05-15T04:14:29;20.00;;;11.93;;
28724;SDS011;43472;48.980;9.646;2023-05-15T04:19:31;15.77;;;8.13;;
28724;SDS011;43472;48.980;9.646;2023-05-15T04:24:33;7.03;;;5.28;;
28724;SDS011;43472;48.980;9.646;2023-05-15T04:29:35;10.38;;;4.97;;
28724;SDS011;43472;48.980;9.646;2023-05-15T04:34:37;7.78;;;5.50;;
28724;SDS011;43472;48.980;9.646;2023-05-15T04:39:39;10.48;;;4.60;;
28724;SDS011;43472;48.980;9.646;2023-05-15T04:44:41;7.85;;;4.10;;
28724;SDS011;43472;48.980;9.646;2023-05-15T04:49:45;6.60;;;4.45;;
28724;SDS011;43472;48.980;9.646;2023-05-15T04:54:48;7.90;;;4.85;;
28724;SDS011;43472;48.980;9.646;2023-05-15T04:59:51;9.13;;;4.80;;
28724;SDS011;43472;48.980;9.646;2023-05-15T05:04:53;6.22;;;4.72;;
28724;SDS011;43472;48.980;9.646;2023-05-15T05:09:55;13.77;;;6.40;;
28724;SDS011;43472;48.980;9.646;2023-05-15T05:14:56;14.32;;;7.85;;
28724;SDS011;43472;48.980;9.646;2023-05-15T05:19:58;27.55;;;14.52;;
28724;SDS011;43472;48.980;9.646;2023-05-15T05:25:03;19.10;;;11.95;;
28724;SDS011;43472;48.980;9.646;2023-05-15T05:30:06;17.80;;;10.25;;
28724;SDS011;43472;48.980;9.646;2023-05-15T05:35:10;8.05;;;4.97;;
28724;SDS011;43472;48.980;9.646;2023-05-15T05:40:12;11.70;;;7.45;;
28724;SDS011;43472;48.980;9.646;2023-05-15T05:45:15;9.10;;;6.95;;
28724;SDS011;43472;48.980;9.646;2023-05-15T05:50:17;12.05;;;7.10;;
28724;SDS011;43472;48.980;9.646;2023-05-15T05:55:19;12.57;;;7.15;;
28724;SDS011;43472;48.980;9.646;2023-05-15T06:00:24;9.30;;;5.28;;
28724;SDS011;43472;48.980;9.646;2023-05-15T06:05:26;7.07;;;5.07;;
28724;SDS011;43472;48.980;9.646;2023-05-15T06:10:29;6.40;;;4.85;;
28724;SDS011;43472;48.980;9.646;2023-05-15T06:15:31;8.00;;;5.80;;
28724;SDS011;43472;48.980;9.646;2023-05-15T06:20:36;7.70;;;5.75;;
28724;SDS011;43472;48.980;9.646;2023-05-15T06:25:38;8.05;;;5.93;;
28724;SDS011;43472;48.980;9.646;2023-05-15T06:30:40;10.90;;;5.75;;
28724;SDS011;43472;48.980;9.646;2023-05-15T06:35:43;6.68;;;4.78;;
28724;SDS011;43472;48.980;9.646;2023-05-15T06:40:47;8.45;;;4.50;;
28724;SDS011;43472;48.980;9.646;2023-05-15T06:45:49;6.63;;;4.78;;
28724;SDS011;43472;48.980;9.646;2023-05-15T06:50:51;7.38;;;4.80;;
28724;SDS011;43472;48.980;9.646;2023-05-15T06:55:53;6.60;;;5.18;;
28724;SDS011;43472;48.980;9.646;2023-05-15T07:00:55;8.05;;;5.68;;
28724;SDS011;43472;48.980;9.646;2023-05-15T07:05:59;7.90;;;5.10;;
28724;SDS011;43472;48.980;9.646;2023-05-15T07:11:01;9.25;;;5.22;;
28724;SDS011;43472;48.980;9.646;2023-05-15T07:16:03;10.48;;;5.03;;
28724;SDS011;43472;48.980;9.646;2023-05-15T07:21:05;6.45;;;4.80;;
28724;SDS011;43472;48.980;9.646;2023-05-15T07:26:07;7.38;;;4.32;;
28724;SDS011;43472;48.980;9.646;2023-05-15T07:31:17;10.07;;;3.88;;
28724;SDS011;43472;48.980;9.646;2023-05-15T07:36:18;5.95;;;4.03;;
28724;SDS011;43472;48.980;9.646;2023-05-15T07:41:20;6.93;;;3.83;;
28724;SDS011;43472;48.980;9.646;2023-05-15T07:46:22;5.18;;;3.72;;
28724;SDS011;43472;48.980;9.646;2023-05-15T07:51:24;5.95;;;3.80;;
28724;SDS011;43472;48.980;9.646;2023-05-15T07:56:26;5.50;;;4.35;;
28724;SDS011;43472;48.980;9.646;2023-05-15T08:01:28;6.10;;;4.07;;
28724;SDS011;43472;48.980;9.646;2023-05-15T08:06:33;4.97;;;3.72;;
28724;SDS011;43472;48.980;9.646;2023-05-15T08:11:37;6.55;;;3.65;;
28724;SDS011;43472;48.980;9.646;2023-05-15T08:16:38;4.07;;;3.63;;
28724;SDS011;43472;48.980;9.646;2023-05-15T08:21:40;4.85;;;3.50;;
28724;SDS011;43472;48.980;9.646;2023-05-15T08:26:42;4.25;;;3.63;;
28724;SDS011;43472;48.980;9.646;2023-05-15T08:31:44;5.20;;;3.60;;
28724;SDS011;43472;48.980;9.646;2023-05-15T08:36:46;8.10;;;3.88;;
28724;SDS011;43472;48.980;9.646;2023-05-15T08:42:32;5.03;;;4.20;;
28724;SDS011;43472;48.980;9.646;2023-05-15T08:47:27;5.28;;;4.18;;
28724;SDS011;43472;48.980;9.646;2023-05-15T08:52:33;5.97;;;3.60;;
28724;SDS011;43472;48.980;9.646;2023-05-15T08:57:35;4.22;;;3.20;;
28724;SDS011;43472;48.980;9.646;2023-05-15T09:02:38;9.15;;;3.65;;
28724;SDS011;43472;48.980;9.646;2023-05-15T09:07:41;6.47;;;3.47;;
28724;SDS011;43472;48.980;9.646;2023-05-15T09:12:45;4.47;;;3.13;;
28724;SDS011;43472;48.980;9.646;2023-05-15T09:17:47;4.45;;;2.83;;
28724;SDS011;43472;48.980;9.646;2023-05-15T09:22:49;4.95;;;3.58;;
28724;SDS011;43472;48.980;9.646;2023-05-15T09:27:50;5.07;;;3.70;;
28724;SDS011;43472;48.980;9.646;2023-05-15T09:32:52;6.15;;;3.33;;
28724;SDS011;43472;48.980;9.646;2023-05-15T09:37:57;5.88;;;3.30;;
28724;SDS011;43472;48.980;9.646;2023-05-15T09:43:02;9.40;;;3.08;;
28724;SDS011;43472;48.980;9.646;2023-05-15T09:48:05;4.20;;;2.92;;
28724;SDS011;43472;48.980;9.646;2023-05-15T09:53:09;3.03;;;2.72;;
28724;SDS011;43472;48.980;9.646;2023-05-15T09:58:13;4.15;;;3.15;;
28724;SDS011;43472;48.980;9.646;2023-05-15T10:03:17;4.18;;;3.50;;
28724;SDS011;43472;48.980;9.646;2023-05-15T10:08:26;10.40;;;2.80;;
28724;SDS011;43472;48.980;9.646;2023-05-15T10:13:31;4.88;;;3.08;;
28724;SDS011;43472;48.980;9.646;2023-05-15T10:18:35;6.43;;;2.85;;
28724;SDS011;43472;48.980;9.646;2023-05-15T10:23:41;6.50;;;2.58;;
28724;SDS011;43472;48.980;9.646;2023-05-15T10:28:44;5.32;;;3.03;;
28724;SDS011;43472;48.980;9.646;2023-05-15T10:33:46;5.05;;;3.00;;
28724;SDS011;43472;48.980;9.646;2023-05-15T10:38:48;5.13;;;2.90;;
28724;SDS011;43472;48.980;9.646;2023-05-15T10:43:52;3.88;;;2.53;;
28724;SDS011;43472;48.980;9.646;2023-05-15T10:48:54;7.95;;;3.00;;
28724;SDS011;43472;48.980;9.646;2023-05-15T10:53:56;8.57;;;2.97;;
28724;SDS011;43472;48.980;9.646;2023-05-15T10:59:03;9.18;;;2.90;;
28724;SDS011;43472;48.980;9.646;2023-05-15T11:04:13;6.10;;;3.15;;
28724;SDS011;43472;48.980;9.646;2023-05-15T11:14:29;3.63;;;2.72;;
28724;SDS011;43472;48.980;9.646;2023-05-15T11:30:11;2.03;;;1.40;;
28724;SDS011;43472;48.980;9.646;2023-05-15T11:35:25;1.58;;;1.17;;
28724;SDS011;43472;48.980;9.646;2023-05-15T11:40:44;2.90;;;1.13;;
28724;SDS011;43472;48.980;9.646;2023-05-15T11:45:53;2.65;;;1.30;;
28724;SDS011;43472;48.980;9.646;2023-05-15T11:51:01;1.80;;;1.20;;
28724;SDS011;43472;48.980;9.646;2023-05-15T11:56:04;1.48;;;0.98;;
28724;SDS011;43472;48.980;9.646;2023-05-15T12:01:08;0.73;;;0.70;;
28724;SDS011;43472;48.980;9.646;2023-05-15T12:06:11;2.42;;;1.20;;
28724;SDS011;43472;48.980;9.646;2023-05-15T12:11:13;1.95;;;1.02;;
28724;SDS011;43472;48.980;9.646;2023-05-15T12:16:15;2.30;;;1.30;;
28724;SDS011;43472;48.980;9.646;2023-05-15T12:21:17;4.60;;;1.25;;
28724;SDS011;43472;48.980;9.646;2023-05-15T12:26:19;2.58;;;2.10;;
28724;SDS011;43472;48.980;9.646;2023-05-15T12:31:23;2.05;;;1.40;;
28724;SDS011;43472;48.980;9.646;2023-05-15T12:36:26;2.13;;;1.75;;
28724;SDS011;43472;48.980;9.646;2023-05-15T12:41:31;3.30;;;2.05;;
28724;SDS011;43472;48.980;9.646;2023-05-15T12:46:33;1.73;;;1.63;;
28724;SDS011;43472;48.980;9.646;2023-05-15T12:51:40;6.63;;;1.92;;
28724;SDS011;43472;48.980;9.646;2023-05-15T12:56:46;1.67;;;1.57;;
28724;SDS011;43472;48.980;9.646;2023-05-15T13:01:48;2.58;;;2.33;;
28724;SDS011;43472;48.980;9.646;2023-05-15T13:06:50;6.40;;;1.85;;
28724;SDS011;43472;48.980;9.646;2023-05-15T13:11:55;7.57;;;2.00;;
28724;SDS011;43472;48.980;9.646;2023-05-15T13:16:58;3.63;;;1.98;;
28724;SDS011;43472;48.980;9.646;2023-05-15T13:22:03;2.92;;;1.70;;
28724;SDS011;43472;48.980;9.646;2023-05-15T13:27:05;3.58;;;1.58;;
28724;SDS011;43472;48.980;9.646;2023-05-15T13:32:07;6.25;;;1.48;;
28724;SDS011;43472;48.980;9.646;2023-05-15T13:37:09;2.53;;;1.50;;
28724;SDS011;43472;48.980;9.646;2023-05-15T13:42:10;2.90;;;1.65;;
28724;SDS011;43472;48.980;9.646;2023-05-15T13:47:12;2.97;;;1.55;;
28724;SDS011;43472;48.980;9.646;2023-05-15T13:52:14;2.45;;;1.60;;
28724;SDS011;43472;48.980;9.646;2023-05-15T13:57:16;4.47;;;1.85;;
28724;SDS011;43472;48.980;9.646;2023-05-15T14:02:19;3.72;;;2.10;;
28724;SDS011;43472;48.980;9.646;2023-05-15T14:07:22;3.75;;;1.88;;
28724;SDS011;43472;48.980;9.646;2023-05-15T14:12:24;3.10;;;2.05;;
28724;SDS011;43472;48.980;9.646;2023-05-15T14:17:26;3.00;;;1.63;;
28724;SDS011;43472;48.980;9.646;2023-05-15T14:22:28;4.30;;;1.70;;
28724;SDS011;43472;48.980;9.646;2023-05-15T14:27:30;3.25;;;1.70;;
28724;SDS011;43472;48.980;9.646;2023-05-15T14:32:31;5.95;;;1.80;;
28724;SDS011;43472;48.980;9.646;2023-05-15T14:37:34;2.42;;;1.95;;
28724;SDS011;43472;48.980;9.646;2023-05-15T14:42:37;4.88;;;1.65;;
28724;SDS011;43472;48.980;9.646;2023-05-15T14:47:39;2.20;;;2.00;;
28724;SDS011;43472;48.980;9.646;2023-05-15T14:52:41;4.72;;;2.15;;
28724;SDS011;43472;48.980;9.646;2023-05-15T14:57:43;4.63;;;2.78;;
28724;SDS011;43472;48.980;9.646;2023-05-15T15:02:49;5.03;;;2.40;;
28724;SDS011;43472;48.980;9.646;2023-05-15T15:07:58;4.60;;;2.20;;
28724;SDS011;43472;48.980;9.646;2023-05-15T15:13:01;4.97;;;2.00;;
28724;SDS011;43472;48.980;9.646;2023-05-15T15:18:04;2.30;;;1.85;;
28724;SDS011;43472;48.980;9.646;2023-05-15T15:23:07;1.90;;;1.60;;
28724;SDS011;43472;48.980;9.646;2023-05-15T15:28:10;2.60;;;2.38;;
28724;SDS011;43472;48.980;9.646;2023-05-15T15:33:13;3.83;;;2.22;;
28724;SDS011;43472;48.980;9.646;2023-05-15T15:38:15;1.95;;;1.75;;
28724;SDS011;43472;48.980;9.646;2023-05-15T15:43:17;3.17;;;2.13;;
28724;SDS011;43472;48.980;9.646;2023-05-15T15:48:19;3.78;;;1.83;;
28724;SDS011;43472;48.980;9.646;2023-05-15T15:53:21;2.60;;;1.80;;
28724;SDS011;43472;48.980;9.646;2023-05-15T15:58:23;2.85;;;1.60;;
28724;SDS011;43472;48.980;9.646;2023-05-15T16:03:25;3.88;;;1.80;;
28724;SDS011;43472;48.980;9.646;2023-05-15T16:08:27;1.67;;;1.40;;
28724;SDS011;43472;48.980;9.646;2023-05-15T16:13:29;3.50;;;1.60;;
28724;SDS011;43472;48.980;9.646;2023-05-15T16:18:31;4.13;;;2.00;;
28724;SDS011;43472;48.980;9.646;2023-05-15T16:23:33;7.20;;;1.98;;
28724;SDS011;43472;48.980;9.646;2023-05-15T16:28:36;2.97;;;1.77;;
28724;SDS011;43472;48.980;9.646;2023-05-15T16:33:38;4.70;;;1.83;;
28724;SDS011;43472;48.980;9.646;2023-05-15T16:38:39;2.40;;;1.73;;
28724;SDS011;43472;48.980;9.646;2023-05-15T16:43:41;2.13;;;1.75;;
28724;SDS011;43472;48.980;9.646;2023-05-15T16:48:44;5.90;;;2.42;;
28724;SDS011;43472;48.980;9.646;2023-05-15T16:53:45;2.65;;;2.13;;
28724;SDS011;43472;48.980;9.646;2023-05-15T16:58:48;5.32;;;2.50;;
28724;SDS011;43472;48.980;9.646;2023-05-15T17:03:50;3.63;;;2.30;;
28724;SDS011;43472;48.980;9.646;2023-05-15T17:08:54;5.95;;;2.50;;
28724;SDS011;43472;48.980;9.646;2023-05-15T17:13:55;3.55;;;2.53;;
28724;SDS011;43472;48.980;9.646;2023-05-15T17:18:57;7.10;;;2.40;;
28724;SDS011;43472;48.980;9.646;2023-05-15T17:23:59;5.25;;;2.60;;
28724;SDS011;43472;48.980;9.646;2023-05-15T17:29:01;7.15;;;2.75;;
28724;SDS011;43472;48.980;9.646;2023-05-15T17:34:03;6.03;;;4.03;;
28724;SDS011;43472;48.980;9.646;2023-05-15T17:39:05;11.02;;;4.47;;
28724;SDS011;43472;48.980;9.646;2023-05-15T17:44:07;6.00;;;2.80;;
28724;SDS011;43472;48.980;9.646;2023-05-15T17:49:09;4.03;;;3.50;;
28724;SDS011;43472;48.980;9.646;2023-05-15T17:54:11;6.10;;;3.80;;
28724;SDS011;43472;48.980;9.646;2023-05-15T17:59:14;4.00;;;3.53;;
28724;SDS011;43472;48.980;9.646;2023-05-15T18:04:16;16.83;;;8.77;;
28724;SDS011;43472;48.980;9.646;2023-05-15T18:09:18;6.32;;;4.55;;
28724;SDS011;43472;48.980;9.646;2023-05-15T18:14:24;7.13;;;4.55;;
28724;SDS011;43472;48.980;9.646;2023-05-15T18:19:26;11.30;;;4.50;;
28724;SDS011;43472;48.980;9.646;2023-05-15T18:24:28;6.13;;;4.78;;
28724;SDS011;43472;48.980;9.646;2023-05-15T18:29:30;11.38;;;6.50;;
28724;SDS011;43472;48.980;9.646;2023-05-15T18:34:32;6.90;;;4.60;;
28724;SDS011;43472;48.980;9.646;2023-05-15T18:39:35;10.52;;;5.38;;
28724;SDS011;43472;48.980;9.646;2023-05-15T18:44:37;10.65;;;6.78;;
28724;SDS011;43472;48.980;9.646;2023-05-15T18:49:42;6.10;;;4.18;;
28724;SDS011;43472;48.980;9.646;2023-05-15T18:54:44;5.88;;;4.22;;
28724;SDS011;43472;48.980;9.646;2023-05-15T18:59:46;8.90;;;5.18;;
28724;SDS011;43472;48.980;9.646;2023-05-15T19:04:48;10.88;;;4.95;;
28724;SDS011;43472;48.980;9.646;2023-05-15T19:09:50;6.10;;;4.13;;
28724;SDS011;43472;48.980;9.646;2023-05-15T19:14:52;8.30;;;4.05;;
28724;SDS011;43472;48.980;9.646;2023-05-15T19:19:54;9.68;;;4.65;;
28724;SDS011;43472;48.980;9.646;2023-05-15T19:24:56;7.90;;;4.50;;
28724;SDS011;43472;48.980;9.646;2023-05-15T19:29:58;6.43;;;4.43;;
28724;SDS011;43472;48.980;9.646;2023-05-15T19:35:00;6.18;;;4.70;;
28724;SDS011;43472;48.980;9.646;2023-05-15T19:40:02;7.78;;;5.38;;
28724;SDS011;43472;48.980;9.646;2023-05-15T19:45:06;6.93;;;4.90;;
28724;SDS011;43472;48.980;9.646;2023-05-15T19:50:08;50.30;;;26.65;;
28724;SDS011;43472;48.980;9.646;2023-05-15T19:55:10;12.88;;;7.28;;
28724;SDS011;43472;48.980;9.646;2023-05-15T20:00:12;9.43;;;5.18;;
28724;SDS011;43472;48.980;9.646;2023-05-15T20:05:14;6.05;;;4.47;;
28724;SDS011;43472;48.980;9.646;2023-05-15T20:10:16;8.32;;;5.35;;
28724;SDS011;43472;48.980;9.646;2023-05-15T20:15:19;14.38;;;6.70;;
28724;SDS011;43472;48.980;9.646;2023-05-15T20:20:21;8.65;;;5.22;;
28724;SDS011;43472;48.980;9.646;2023-05-15T20:25:23;5.18;;;4.45;;
28724;SDS011;43472;48.980;9.646;2023-05-15T20:30:25;5.60;;;4.68;;
28724;SDS011;43472;48.980;9.646;2023-05-15T20:35:28;10.45;;;5.30;;
28724;SDS011;43472;48.980;9.646;2023-05-15T20:40:30;6.53;;;4.68;;
28724;SDS011;43472;48.980;9.646;2023-05-15T20:45:31;5.72;;;4.53;;
28724;SDS011;43472;48.980;9.646;2023-05-15T20:50:34;8.48;;;4.22;;
28724;SDS011;43472;48.980;9.646;2023-05-15T20:55:36;7.60;;;4.78;;
28724;SDS011;43472;48.980;9.646;2023-05-15T21:00:38;8.77;;;5.22;;
28724;SDS011;43472;48.980;9.646;2023-05-15T21:05:39;7.28;;;4.70;;
28724;SDS011;43472;48.980;9.646;2023-05-15T21:10:41;8.43;;;4.95;;
28724;SDS011;43472;48.980;9.646;2023-05-15T21:15:44;8.73;;;5.72;;
28724;SDS011;43472;48.980;9.646;2023-05-15T21:20:46;9.38;;;6.68;;
28724;SDS011;43472;48.980;9.646;2023-05-15T21:25:47;6.13;;;5.03;;
28724;SDS011;43472;48.980;9.646;2023-05-15T21:30:49;9.95;;;6.03;;
28724;SDS011;43472;48.980;9.646;2023-05-15T21:35:52;8.48;;;5.47;;
28724;SDS011;43472;48.980;9.646;2023-05-15T21:40:54;6.97;;;4.95;;
28724;SDS011;43472;48.980;9.646;2023-05-15T21:45:56;7.03;;;5.20;;
28724;SDS011;43472;48.980;9.646;2023-05-15T21:50:58;10.10;;;4.93;;
28724;SDS011;43472;48.980;9.646;2023-05-15T21:56:00;8.23;;;5.68;;
28724;SDS011;43472;48.980;9.646;2023-05-15T22:01:02;12.20;;;5.65;;
28724;SDS011;43472;48.980;9.646;2023-05-15T22:06:04;10.32;;;6.10;;
28724;SDS011;43472;48.980;9.646;2023-05-15T22:11:06;8.75;;;5.50;;
28724;SDS011;43472;48.980;9.646;2023-05-15T22:16:08;8.25;;;4.78;;
28724;SDS011;43472;48.980;9.646;2023-05-15T22:21:10;10.00;;;4.72;;
28724;SDS011;43472;48.980;9.646;2023-05-15T22:26:12;6.72;;;5.05;;
28724;SDS011;43472;48.980;9.646;2023-05-15T22:31:14;11.70;;;5.32;;
28724;SDS011;43472;48.980;9.646;2023-05-15T22:36:15;7.85;;;5.30;;
28724;SDS011;43472;48.980;9.646;2023-05-15T22:41:17;6.88;;;5.32;;
28724;SDS011;43472;48.980;9.646;2023-05-15T22:46:20;10.93;;;5.75;;
28724;SDS011;43472;48.980;9.646;2023-05-15T22:51:21;7.13;;;5.88;;
28724;SDS011;43472;48.980;9.646;2023-05-15T22:56:24;7.63;;;4.85;;
28724;SDS011;43472;48.980;9.646;2023-05-15T23:01:26;9.40;;;6.35;;
28724;SDS011;43472;48.980;9.646;2023-05-15T23:06:30;8.23;;;5.38;;
28724;SDS011;43472;48.980;9.646;2023-05-15T23:11:32;7.95;;;5.28;;
28724;SDS011;43472;48.980;9.646;2023-05-15T23:16:34;13.23;;;5.88;;
28724;SDS011;43472;48.980;9.646;2023-05-15T23:21:36;8.10;;;5.85;;
28724;SDS011;43472;48.980;9.646;2023-05-15T23:26:38;8.60;;;5.53;;
28724;SDS011;43472;48.980;9.646;2023-05-15T23:31:40;7.68;;;5.15;;
28724;SDS011;43472;48.980;9.646;2023-05-15T23:36:43;8.82;;;6.13;;
28724;SDS011;43472;48.980;9.646;2023-05-15T23:41:45;9.85;;;6.05;;
28724;SDS011;43472;48.980;9.646;2023-05-15T23:46:47;7.90;;;5.55;;
28724;SDS011;43472;48.980;9.646;2023-05-15T23:51:49;9.10;;;5.85;;
28724;SDS011;43472;48.980;9.646;2023-05-15T23:56:51;13.90;;;6.00;;
